createdAt,value
2018-05-11T00:01:10.719Z,1.67
2018-05-11T00:03:38.180Z,2.73
2018-05-11T00:06:06.448Z,2.47
2018-05-11T00:08:33.912Z,2.20
2018-05-11T00:11:01.414Z,1.90
2018-05-11T00:13:28.898Z,2.03
2018-05-11T00:15:57.164Z,1.60
2018-05-11T00:18:24.662Z,1.97
2018-05-11T00:20:52.183Z,1.37
2018-05-11T00:23:19.709Z,3.03
2018-05-11T00:25:47.952Z,1.73
2018-05-11T00:28:15.416Z,3.13
2018-05-11T00:30:42.933Z,1.80
2018-05-11T00:33:10.413Z,2.10
2018-05-11T00:35:37.910Z,2.30
2018-05-11T00:38:05.404Z,2.20
2018-05-11T00:40:32.896Z,1.70
2018-05-11T00:43:01.144Z,2.27
2018-05-11T00:45:28.641Z,4.13
2018-05-11T00:47:56.124Z,2.00
2018-05-11T00:50:23.664Z,1.63
2018-05-11T00:52:51.378Z,1.40
2018-05-11T00:55:31.657Z,1.57
2018-05-11T00:57:59.207Z,1.37
2018-05-11T01:00:26.725Z,1.80
2018-05-11T01:02:54.236Z,1.73
2018-05-11T01:05:21.828Z,1.97
2018-05-11T01:07:49.312Z,1.70
2018-05-11T01:10:17.551Z,1.40
2018-05-11T01:12:45.050Z,1.60
2018-05-11T01:15:12.520Z,1.63
2018-05-11T01:17:40.014Z,2.03
2018-05-11T01:20:08.247Z,3.47
2018-05-11T01:22:35.745Z,2.20
2018-05-11T01:25:03.333Z,1.97
2018-05-11T01:27:30.843Z,1.63
2018-05-11T01:29:58.400Z,1.73
2018-05-11T01:32:25.910Z,1.87
2018-05-11T01:34:53.390Z,2.10
2018-05-11T01:37:20.915Z,1.73
2018-05-11T01:39:48.425Z,2.67
2018-05-11T01:42:16.639Z,1.73
2018-05-11T01:44:44.104Z,1.70
2018-05-11T01:47:11.602Z,2.13
2018-05-11T01:49:39.076Z,1.90
2018-05-11T01:52:06.568Z,1.50
2018-05-11T01:54:34.032Z,2.30
2018-05-11T01:57:04.219Z,1.80
2018-05-11T01:59:31.912Z,1.70
2018-05-11T02:01:59.417Z,1.53
2018-05-11T02:04:27.684Z,2.27
2018-05-11T02:06:55.175Z,1.67
2018-05-11T02:09:23.422Z,1.63
2018-05-11T02:11:51.088Z,2.03
2018-05-11T02:14:18.571Z,1.77
2018-05-11T02:16:46.063Z,1.60
2018-05-11T02:19:13.631Z,6.23
2018-05-11T02:21:42.641Z,1.77
2018-05-11T02:24:10.416Z,3.07
2018-05-11T02:26:37.929Z,1.37
2018-05-11T02:29:05.556Z,4.03
2018-05-11T02:31:33.069Z,2.10
2018-05-11T02:34:00.533Z,1.37
2018-05-11T02:36:28.797Z,3.13
2018-05-11T02:38:56.288Z,1.93
2018-05-11T02:41:24.554Z,1.80
2018-05-11T02:43:52.224Z,2.90
2018-05-11T02:46:19.722Z,1.43
2018-05-11T02:48:47.962Z,1.73
2018-05-11T02:51:15.474Z,1.70
2018-05-11T02:53:42.945Z,1.87
2018-05-11T02:56:12.140Z,1.97
2018-05-11T02:58:39.623Z,3.37
2018-05-11T03:01:07.112Z,2.07
2018-05-11T03:03:35.348Z,3.57
2018-05-11T03:06:02.806Z,3.40
2018-05-11T03:08:30.316Z,1.97
2018-05-11T03:10:58.036Z,1.60
2018-05-11T03:13:25.521Z,2.30
2018-05-11T03:15:53.011Z,2.17
2018-05-11T03:18:20.540Z,2.13
2018-05-11T03:20:48.004Z,1.93
2018-05-11T03:23:15.491Z,4.30
2018-05-11T03:25:42.965Z,4.53
2018-05-11T03:28:10.470Z,1.43
2018-05-11T03:30:38.721Z,1.60
2018-05-11T03:33:06.227Z,1.67
2018-05-11T03:35:33.731Z,1.63
2018-05-11T03:38:01.225Z,3.67
2018-05-11T03:40:29.489Z,2.67
2018-05-11T03:42:56.997Z,2.97
2018-05-11T03:45:24.479Z,1.90
2018-05-11T03:47:52.055Z,1.67
2018-05-11T03:50:19.545Z,1.80
2018-05-11T03:52:47.142Z,2.27
2018-05-11T03:55:14.738Z,2.97
2018-05-11T03:57:43.001Z,1.87
2018-05-11T04:00:10.470Z,1.70
2018-05-11T04:02:49.825Z,1.77
2018-05-11T04:05:29.252Z,1.83
2018-05-11T04:08:09.609Z,1.50
2018-05-11T04:10:37.098Z,1.90
2018-05-11T04:13:04.587Z,2.47
2018-05-11T04:15:32.140Z,1.47
2018-05-11T04:17:59.652Z,1.73
2018-05-11T04:20:27.119Z,1.70
2018-05-11T04:22:54.613Z,1.40
2018-05-11T04:25:22.107Z,1.90
2018-05-11T04:27:49.609Z,1.73
2018-05-11T04:30:17.122Z,1.60
2018-05-11T04:32:44.586Z,3.90
2018-05-11T04:35:12.916Z,2.37
2018-05-11T04:37:40.414Z,2.03
2018-05-11T04:40:07.889Z,1.77
2018-05-11T04:42:35.406Z,1.73
2018-05-11T04:45:02.955Z,2.50
2018-05-11T04:47:31.239Z,2.97
2018-05-11T04:49:58.934Z,2.67
2018-05-11T04:52:26.551Z,2.63
2018-05-11T04:54:54.161Z,2.60
2018-05-11T04:57:21.659Z,4.10
2018-05-11T04:59:49.179Z,3.13
2018-05-11T05:02:16.669Z,3.03
2018-05-11T05:04:44.152Z,3.07
2018-05-11T05:07:11.675Z,3.27
2018-05-11T05:09:39.170Z,4.10
2018-05-11T05:12:06.660Z,3.10
2018-05-11T05:14:34.225Z,4.03
2018-05-11T05:17:01.687Z,3.87
2018-05-11T05:19:29.254Z,2.87
2018-05-11T05:21:56.858Z,3.30
2018-05-11T05:24:24.415Z,3.40
2018-05-11T05:26:51.943Z,3.57
2018-05-11T05:29:19.439Z,3.30
2018-05-11T05:31:46.904Z,3.40
2018-05-11T05:34:14.489Z,3.43
2018-05-11T05:36:42.003Z,3.30
2018-05-11T05:39:11.268Z,4.30
2018-05-11T05:41:38.823Z,5.83
2018-05-11T05:44:06.320Z,4.60
2018-05-11T05:46:33.785Z,4.40
2018-05-11T05:49:01.336Z,3.80
2018-05-11T05:51:28.944Z,4.90
2018-05-11T05:53:56.424Z,3.93
2018-05-11T05:56:23.905Z,3.77
2018-05-11T05:58:51.512Z,5.57
2018-05-11T06:01:18.989Z,5.50
2018-05-11T06:03:46.479Z,4.90
2018-05-11T06:06:14.052Z,3.83
2018-05-11T06:08:41.557Z,3.80
2018-05-11T06:11:09.120Z,3.90
2018-05-11T06:13:36.611Z,4.37
2018-05-11T06:16:04.841Z,3.83
2018-05-11T06:18:32.364Z,4.13
2018-05-11T06:20:59.841Z,3.83
2018-05-11T06:23:28.116Z,3.90
2018-05-11T06:25:55.710Z,3.40
2018-05-11T06:28:23.989Z,5.20
2018-05-11T06:30:52.990Z,4.20
2018-05-11T06:33:21.269Z,5.67
2018-05-11T06:35:48.741Z,4.30
2018-05-11T06:38:16.223Z,6.17
2018-05-11T06:40:43.707Z,6.43
2018-05-11T06:43:11.976Z,6.87
2018-05-11T06:45:40.268Z,4.60
2018-05-11T06:48:07.756Z,3.90
2018-05-11T06:50:36.053Z,3.40
2018-05-11T06:53:04.304Z,3.33
2018-05-11T06:55:31.805Z,3.27
2018-05-11T06:57:59.320Z,3.67
2018-05-11T07:00:26.788Z,3.40
2018-05-11T07:02:54.448Z,3.20
2018-05-11T07:05:21.955Z,3.00
2018-05-11T07:07:49.568Z,4.53
2018-05-11T07:10:17.737Z,3.17
2018-05-11T07:12:45.209Z,3.47
2018-05-11T07:15:12.717Z,3.60
2018-05-11T07:17:40.172Z,5.30
2018-05-11T07:20:08.531Z,2.87
2018-05-11T07:22:36.001Z,2.77
2018-05-11T07:25:03.494Z,2.90
2018-05-11T07:27:30.956Z,2.97
2018-05-11T07:29:58.476Z,3.40
2018-05-11T07:32:26.007Z,4.37
2018-05-11T07:34:53.620Z,3.43
2018-05-11T07:37:21.839Z,4.07
2018-05-11T07:39:49.332Z,3.50
2018-05-11T07:42:16.816Z,3.97
2018-05-11T07:44:45.064Z,4.10
2018-05-11T07:47:12.559Z,5.33
2018-05-11T07:49:40.061Z,4.90
2018-05-11T07:52:08.315Z,4.07
2018-05-11T07:54:35.800Z,4.17
2018-05-11T07:57:03.300Z,3.93
2018-05-11T07:59:31.560Z,4.23
2018-05-11T08:01:59.118Z,6.50
2018-05-11T08:04:26.612Z,5.00
2018-05-11T08:06:54.076Z,6.43
2018-05-11T08:09:21.638Z,4.33
2018-05-11T08:11:49.115Z,4.83
2018-05-11T08:14:16.660Z,4.73
2018-05-11T08:16:44.113Z,4.83
2018-05-11T08:19:11.605Z,4.27
2018-05-11T08:21:39.100Z,4.17
2018-05-11T08:24:06.596Z,5.53
2018-05-11T08:26:34.984Z,5.63
2018-05-11T08:29:02.457Z,5.27
2018-05-11T08:31:30.717Z,4.30
2018-05-11T08:33:58.205Z,4.57
2018-05-11T08:36:25.685Z,5.80
2018-05-11T08:38:53.184Z,4.57
2018-05-11T08:41:20.844Z,5.17
2018-05-11T08:43:49.152Z,4.60
2018-05-11T08:46:16.615Z,4.67
2018-05-11T08:48:44.105Z,4.87
2018-05-11T08:51:11.580Z,7.17
2018-05-11T08:53:39.069Z,5.80
2018-05-11T08:56:06.536Z,6.97
2018-05-11T08:58:34.114Z,5.50
2018-05-11T09:01:01.613Z,5.67
2018-05-11T09:03:29.100Z,5.50
2018-05-11T09:05:57.339Z,5.53
2018-05-11T09:08:24.893Z,5.50
2018-05-11T09:10:52.519Z,6.03
2018-05-11T09:13:20.006Z,6.10
2018-05-11T09:15:48.277Z,6.05
2018-05-11T09:18:16.548Z,5.07
2018-05-11T09:20:44.025Z,5.95
2018-05-11T09:23:11.509Z,6.50
2018-05-11T09:25:38.992Z,6.60
2018-05-11T09:28:07.261Z,6.30
2018-05-11T09:30:34.878Z,5.30
2018-05-11T09:33:02.363Z,5.70
2018-05-11T09:35:29.862Z,6.90
2018-05-11T09:37:57.367Z,5.40
2018-05-11T09:40:24.881Z,6.68
2018-05-11T09:42:52.421Z,5.10
2018-05-11T09:45:19.926Z,5.45
2018-05-11T09:47:47.416Z,5.93
2018-05-11T09:50:14.929Z,6.78
2018-05-11T09:52:43.176Z,5.80
2018-05-11T09:55:10.673Z,5.87
2018-05-11T09:57:38.170Z,5.25
2018-05-11T10:00:06.422Z,8.10
2018-05-11T10:02:34.057Z,5.75
2018-05-11T10:05:01.556Z,5.97
2018-05-11T10:07:29.030Z,6.25
2018-05-11T10:09:57.291Z,6.30
2018-05-11T10:12:24.777Z,6.20
2018-05-11T10:14:52.308Z,7.22
2018-05-11T10:17:20.592Z,5.37
2018-05-11T10:19:48.842Z,5.65
2018-05-11T10:22:16.307Z,5.75
2018-05-11T10:24:43.807Z,4.80
2018-05-11T10:27:11.272Z,6.85
2018-05-11T10:29:38.812Z,6.62
2018-05-11T10:32:06.282Z,5.12
2018-05-11T10:34:33.805Z,4.57
2018-05-11T10:37:01.256Z,5.80
2018-05-11T10:39:28.744Z,4.55
2018-05-11T10:41:56.221Z,4.70
2018-05-11T10:44:23.725Z,5.53
2018-05-11T10:46:51.246Z,5.25
2018-05-11T10:49:19.543Z,5.45
2018-05-11T10:51:47.037Z,4.82
2018-05-11T10:54:14.542Z,5.00
2018-05-11T10:56:42.012Z,4.70
2018-05-11T10:59:09.580Z,4.75
2018-05-11T11:01:37.069Z,5.30
2018-05-11T11:04:04.530Z,5.68
2018-05-11T11:06:32.019Z,5.32
2018-05-11T11:08:59.502Z,4.40
2018-05-11T11:11:26.995Z,4.00
2018-05-11T11:13:55.465Z,5.30
2018-05-11T11:16:23.047Z,5.00
2018-05-11T11:18:50.549Z,5.07
2018-05-11T11:21:18.811Z,5.10
2018-05-11T11:23:47.085Z,5.13
2018-05-11T11:26:14.579Z,5.20
2018-05-11T11:28:42.823Z,5.00
2018-05-11T11:31:10.406Z,8.95
2018-05-11T11:33:37.873Z,4.82
2018-05-11T11:36:05.355Z,4.37
2018-05-11T11:38:32.820Z,5.37
2018-05-11T11:41:00.300Z,6.60
2018-05-11T11:43:27.771Z,8.03
2018-05-11T11:45:55.277Z,5.03
2018-05-11T11:48:22.772Z,5.40
2018-05-11T11:50:50.296Z,6.23
2018-05-11T11:53:18.549Z,4.47
2018-05-11T11:55:46.038Z,3.97
2018-05-11T11:58:13.512Z,4.20
2018-05-11T12:00:41.060Z,3.90
2018-05-11T12:03:08.605Z,4.28
2018-05-11T12:05:36.108Z,4.75
2018-05-11T12:08:04.352Z,3.95
2018-05-11T12:10:32.607Z,3.95
2018-05-11T12:13:00.079Z,4.75
2018-05-11T12:15:27.589Z,3.73
2018-05-11T12:17:55.116Z,4.33
2018-05-11T12:20:22.630Z,4.00
2018-05-11T12:22:50.867Z,4.13
2018-05-11T12:25:18.364Z,4.62
2018-05-11T12:27:46.364Z,4.07
2018-05-11T12:30:14.676Z,5.70
2018-05-11T12:32:42.150Z,4.20
2018-05-11T12:35:09.644Z,8.57
2018-05-11T12:37:37.112Z,3.90
2018-05-11T12:40:04.604Z,3.70
2018-05-11T12:42:32.085Z,3.47
2018-05-11T12:44:59.605Z,3.70
2018-05-11T12:47:27.160Z,3.97
2018-05-11T12:49:55.433Z,3.37
2018-05-11T12:52:22.928Z,3.37
2018-05-11T12:54:50.476Z,3.70
2018-05-11T12:57:18.783Z,3.90
2018-05-11T12:59:47.036Z,3.70
2018-05-11T13:02:14.648Z,5.20
2018-05-11T13:04:42.896Z,3.90
2018-05-11T13:07:10.395Z,4.43
2018-05-11T13:09:37.859Z,3.80
2018-05-11T13:12:05.346Z,2.97
2018-05-11T13:14:33.597Z,4.27
2018-05-11T13:17:01.100Z,3.83
2018-05-11T13:19:29.671Z,3.97
2018-05-11T13:21:57.195Z,3.60
2018-05-11T13:24:24.668Z,5.13
2018-05-11T13:26:52.196Z,3.70
2018-05-11T13:29:19.680Z,3.50
2018-05-11T13:31:47.955Z,3.60
2018-05-11T13:34:15.478Z,3.10
2018-05-11T13:36:42.916Z,3.27
2018-05-11T13:39:11.157Z,4.37
2018-05-11T13:41:38.643Z,4.40
2018-05-11T13:44:06.107Z,3.40
2018-05-11T13:46:33.612Z,3.63
2018-05-11T13:49:01.080Z,4.07
2018-05-11T13:51:28.574Z,5.77
2018-05-11T13:53:56.160Z,5.23
2018-05-11T13:56:23.739Z,3.73
2018-05-11T13:58:51.152Z,2.77
2018-05-11T14:01:18.659Z,3.03
2018-05-11T14:03:46.146Z,3.10
2018-05-11T14:06:13.625Z,4.50
2018-05-11T14:08:41.089Z,3.33
2018-05-11T14:11:08.571Z,3.80
2018-05-11T14:13:36.048Z,3.30
2018-05-11T14:16:04.016Z,3.37
2018-05-11T14:18:31.499Z,4.77
2018-05-11T14:20:58.980Z,2.50
2018-05-11T14:23:26.487Z,3.10
2018-05-11T14:25:53.973Z,2.47
2018-05-11T14:28:22.250Z,3.50
2018-05-11T14:30:50.515Z,3.55
2018-05-11T14:33:18.049Z,5.87
2018-05-11T14:35:45.520Z,3.12
2018-05-11T14:38:13.010Z,2.70
2018-05-11T14:40:40.472Z,3.23
2018-05-11T14:43:07.976Z,2.23
2018-05-11T14:45:35.451Z,2.83
2018-05-11T14:48:02.944Z,4.27
2018-05-11T14:50:31.184Z,2.23
2018-05-11T14:52:58.680Z,2.83
2018-05-11T14:55:26.185Z,3.23
2018-05-11T14:57:54.472Z,3.50
2018-05-11T15:00:22.712Z,3.23
2018-05-11T15:02:50.243Z,3.00
2018-05-11T15:05:18.481Z,3.03
2018-05-11T15:07:46.023Z,3.00
2018-05-11T15:10:13.548Z,2.70
2018-05-11T15:12:40.997Z,2.30
2018-05-11T15:15:08.482Z,7.90
2018-05-11T15:17:36.097Z,2.00
2018-05-11T15:20:04.339Z,2.70
2018-05-11T15:22:31.827Z,2.77
2018-05-11T15:24:59.306Z,3.07
2018-05-11T15:27:26.914Z,3.33
2018-05-11T15:29:54.431Z,4.27
2018-05-11T15:32:21.916Z,3.00
2018-05-11T15:34:49.420Z,4.27
2018-05-11T15:37:16.889Z,3.17
2018-05-11T15:39:44.377Z,2.83
2018-05-11T15:42:11.872Z,3.67
2018-05-11T15:44:39.365Z,3.83
2018-05-11T15:47:06.835Z,2.97
2018-05-11T15:49:34.326Z,2.57
2018-05-11T15:52:02.566Z,2.67
2018-05-11T15:54:30.059Z,2.00
2018-05-11T15:56:57.694Z,2.97
2018-05-11T15:59:25.230Z,2.47
2018-05-11T16:01:52.736Z,2.70
2018-05-11T16:04:20.273Z,4.63
2018-05-11T16:06:48.510Z,2.80
2018-05-11T16:09:15.999Z,2.83
2018-05-11T16:11:43.476Z,2.60
2018-05-11T16:14:10.961Z,2.50
2018-05-11T16:16:38.563Z,2.10
2018-05-11T16:19:06.812Z,3.60
2018-05-11T16:21:34.283Z,2.77
2018-05-11T16:24:01.764Z,2.07
2018-05-11T16:26:29.223Z,2.43
2018-05-11T16:28:56.812Z,1.70
2018-05-11T16:31:24.298Z,3.03
2018-05-11T16:33:52.592Z,1.50
2018-05-11T16:36:20.887Z,2.20
2018-05-11T16:38:48.379Z,1.90
2018-05-11T16:41:15.843Z,2.40
2018-05-11T16:43:43.316Z,5.40
2018-05-11T16:46:10.801Z,1.43
2018-05-11T16:48:38.310Z,2.13
2018-05-11T16:51:05.852Z,5.20
2018-05-11T16:53:33.297Z,1.80
2018-05-11T16:56:00.823Z,1.70
2018-05-11T16:58:28.319Z,1.60
2018-05-11T17:00:56.569Z,1.97
2018-05-11T17:03:24.105Z,1.70
2018-05-11T17:05:51.570Z,3.37
2018-05-11T17:08:19.163Z,1.90
2018-05-11T17:10:46.649Z,3.20
2018-05-11T17:13:14.140Z,3.33
2018-05-11T17:15:41.634Z,1.57
2018-05-11T17:18:10.997Z,3.13
2018-05-11T17:20:38.544Z,1.67
2018-05-11T17:23:06.012Z,1.50
2018-05-11T17:25:34.288Z,1.77
2018-05-11T17:28:02.244Z,2.00
2018-05-11T17:30:29.767Z,1.50
2018-05-11T17:32:58.617Z,1.53
2018-05-11T17:35:26.121Z,1.50
2018-05-11T17:37:54.373Z,1.87
2018-05-11T17:40:21.993Z,1.63
2018-05-11T17:42:49.859Z,1.90
2018-05-11T17:45:18.287Z,3.50
2018-05-11T17:47:45.767Z,1.60
2018-05-11T17:50:13.260Z,1.80
2018-05-11T17:52:40.740Z,2.17
2018-05-11T17:55:08.240Z,1.97
2018-05-11T17:57:35.708Z,1.70
2018-05-11T18:00:03.199Z,1.20
2018-05-11T18:02:31.448Z,1.73
2018-05-11T18:04:58.941Z,1.87
2018-05-11T18:07:26.424Z,1.83
2018-05-11T18:09:54.698Z,1.33
2018-05-11T18:12:22.366Z,1.63
2018-05-11T18:14:49.805Z,3.27
2018-05-11T18:17:17.324Z,1.70
2018-05-11T18:19:45.575Z,1.53
2018-05-11T18:22:13.036Z,1.47
2018-05-11T18:24:40.524Z,1.60
2018-05-11T18:27:07.993Z,1.50
2018-05-11T18:29:35.476Z,3.27
2018-05-11T18:32:02.948Z,1.50
2018-05-11T18:34:30.529Z,1.63
2018-05-11T18:36:58.004Z,4.50
2018-05-11T18:39:25.495Z,1.63
2018-05-11T18:41:52.960Z,1.47
2018-05-11T18:44:20.466Z,1.70
2018-05-11T18:46:48.002Z,1.90
2018-05-11T18:49:15.444Z,1.50
2018-05-11T18:51:44.472Z,2.40
2018-05-11T18:54:13.076Z,1.83
2018-05-11T18:56:40.292Z,1.60
2018-05-11T18:59:07.780Z,1.43
2018-05-11T19:01:35.321Z,1.83
2018-05-11T19:04:02.737Z,1.87
2018-05-11T19:06:30.200Z,2.17
2018-05-11T19:08:57.765Z,1.90
2018-05-11T19:11:25.216Z,1.60
2018-05-11T19:13:52.715Z,1.83
2018-05-11T19:16:20.183Z,1.80
2018-05-11T19:18:47.676Z,1.67
2018-05-11T19:21:15.903Z,2.70
2018-05-11T19:23:43.376Z,1.67
2018-05-11T19:26:10.938Z,1.77
2018-05-11T19:28:38.456Z,1.90
2018-05-11T19:31:05.940Z,1.87
2018-05-11T19:33:33.430Z,2.33
2018-05-11T19:36:01.696Z,1.77
2018-05-11T19:38:29.189Z,1.73
2018-05-11T19:40:57.461Z,1.73
2018-05-11T19:43:25.028Z,1.93
2018-05-11T19:45:52.576Z,3.20
2018-05-11T19:48:20.672Z,2.37
2018-05-11T19:50:48.160Z,2.50
2018-05-11T19:53:15.639Z,3.40
2018-05-11T19:55:43.195Z,2.73
2018-05-11T19:58:10.656Z,1.90
2018-05-11T20:00:38.163Z,2.17
2018-05-11T20:03:06.403Z,1.90
2018-05-11T20:05:33.896Z,1.73
2018-05-11T20:08:02.140Z,2.30
2018-05-11T20:10:29.662Z,3.27
2018-05-11T20:12:57.186Z,2.07
2018-05-11T20:15:24.696Z,2.77
2018-05-11T20:17:52.220Z,2.30
2018-05-11T20:20:19.929Z,2.13
2018-05-11T20:22:47.427Z,1.80
2018-05-11T20:25:14.921Z,1.87
2018-05-11T20:27:43.188Z,2.57
2018-05-11T20:30:10.670Z,1.93
2018-05-11T20:32:39.143Z,4.53
2018-05-11T20:35:06.727Z,1.97
2018-05-11T20:37:34.952Z,2.43
2018-05-11T20:40:02.495Z,2.70
2018-05-11T20:42:30.724Z,1.77
2018-05-11T20:44:58.219Z,1.83
2018-05-11T20:47:25.705Z,1.73
2018-05-11T20:49:53.248Z,1.60
2018-05-11T20:52:20.819Z,2.13
2018-05-11T20:54:48.347Z,1.90
2018-05-11T20:57:16.641Z,1.90
2018-05-11T20:59:44.148Z,1.87
2018-05-11T21:02:11.612Z,1.90
2018-05-11T21:04:39.104Z,4.33
2018-05-11T21:07:06.584Z,2.33
2018-05-11T21:09:34.077Z,1.80
2018-05-11T21:12:01.575Z,2.97
2018-05-11T21:14:29.830Z,2.07
2018-05-11T21:16:58.075Z,2.20
2018-05-11T21:19:25.600Z,2.57
2018-05-11T21:21:53.210Z,1.87
2018-05-11T21:24:20.681Z,3.30
2018-05-11T21:26:48.223Z,3.30
2018-05-11T21:29:16.529Z,4.37
2018-05-11T21:31:44.792Z,1.80
2018-05-11T21:34:12.255Z,1.87
2018-05-11T21:36:41.289Z,2.53
2018-05-11T21:39:09.509Z,2.37
2018-05-11T21:41:37.018Z,2.40
2018-05-11T21:44:04.488Z,2.30
2018-05-11T21:46:31.963Z,2.50
2018-05-11T21:48:59.532Z,2.20
2018-05-11T21:51:27.038Z,3.23
2018-05-11T21:53:55.292Z,3.13
2018-05-11T21:56:22.792Z,2.50
2018-05-11T21:58:51.040Z,2.50
2018-05-11T22:01:18.560Z,2.70
2018-05-11T22:03:46.028Z,2.90
2018-05-11T22:06:14.289Z,2.90
2018-05-11T22:08:41.779Z,2.90
2018-05-11T22:11:10.028Z,3.83
2018-05-11T22:13:37.554Z,2.73
2018-05-11T22:16:05.008Z,3.70
2018-05-11T22:18:32.477Z,3.13
2018-05-11T22:21:00.093Z,3.37
2018-05-11T22:23:27.721Z,2.90
2018-05-11T22:25:55.232Z,3.37
2018-05-11T22:28:22.751Z,3.37
2018-05-11T22:30:51.067Z,3.53
2018-05-11T22:33:18.559Z,3.37
2018-05-11T22:35:46.054Z,3.20
2018-05-11T22:38:13.542Z,2.70
2018-05-11T22:40:41.126Z,3.67
2018-05-11T22:43:08.596Z,3.47
2018-05-11T22:45:36.854Z,4.13
2018-05-11T22:48:04.336Z,3.30
2018-05-11T22:50:31.812Z,2.83
2018-05-11T22:52:59.273Z,2.87
2018-05-11T22:55:26.764Z,2.97
2018-05-11T22:57:54.248Z,3.40
2018-05-11T23:00:27.447Z,3.83
2018-05-11T23:02:54.930Z,3.40
2018-05-11T23:05:22.448Z,2.70
2018-05-11T23:07:49.933Z,2.97
2018-05-11T23:10:17.481Z,3.67
2018-05-11T23:12:44.960Z,3.50
2018-05-11T23:15:12.464Z,4.47
2018-05-11T23:17:39.935Z,3.67
2018-05-11T23:20:07.423Z,3.07
2018-05-11T23:22:36.422Z,4.00
2018-05-11T23:25:04.076Z,3.63
2018-05-11T23:27:31.580Z,4.00
2018-05-11T23:29:59.046Z,3.53
2018-05-11T23:32:26.583Z,3.83
2018-05-11T23:34:54.072Z,3.73
2018-05-11T23:37:21.604Z,2.90
2018-05-11T23:39:49.112Z,3.10
2018-05-11T23:42:16.592Z,2.97
2018-05-11T23:44:44.051Z,2.90
2018-05-11T23:47:11.613Z,2.73
2018-05-11T23:49:39.115Z,2.93
2018-05-11T23:52:06.567Z,2.77
2018-05-11T23:54:34.040Z,2.77
2018-05-11T23:57:01.528Z,2.73
2018-05-11T23:59:29.764Z,3.00
